createdAt,value
2017-08-10T16:07:51.143Z,94614.32
2017-08-10T16:10:18.717Z,94617.02
2017-08-10T16:12:46.209Z,94610.66
2017-08-10T16:15:13.734Z,94611.00
2017-08-10T16:17:41.287Z,94608.59
2017-08-10T16:20:08.904Z,94611.46
2017-08-10T16:22:36.440Z,94623.91
2017-08-10T16:25:03.925Z,94623.11
2017-08-10T16:27:31.437Z,94629.63
2017-08-10T16:29:58.965Z,94634.36
2017-08-10T16:32:26.473Z,94634.99
2017-08-10T16:34:54.027Z,94636.64
2017-08-10T16:37:21.564Z,94638.77
2017-08-10T16:39:49.067Z,94645.33
2017-08-10T16:42:16.601Z,94637.70
2017-08-10T16:44:44.286Z,94648.86
2017-08-10T16:47:11.818Z,94643.31
2017-08-10T16:49:39.379Z,94648.50
2017-08-10T16:52:06.957Z,94646.14
2017-08-10T16:54:34.516Z,94657.10
2017-08-10T16:57:02.002Z,94645.63
2017-08-10T16:59:29.688Z,94664.69
2017-08-10T17:01:57.198Z,94660.53
2017-08-10T17:04:24.753Z,94667.53
2017-08-10T17:06:52.272Z,94663.50
2017-08-10T17:09:19.770Z,94666.69
2017-08-10T17:11:47.336Z,94660.94
2017-08-10T17:14:14.944Z,94668.98
2017-08-10T17:16:42.511Z,94663.77
2017-08-10T17:19:10.072Z,94661.33
2017-08-10T17:21:37.669Z,94657.98
2017-08-10T17:24:05.188Z,94659.30
2017-08-10T17:26:32.686Z,94659.09
2017-08-10T17:29:00.254Z,94661.02
2017-08-10T17:31:27.792Z,94667.39
2017-08-10T17:33:55.301Z,94669.66
2017-08-10T17:36:22.838Z,94672.21
2017-08-10T17:38:50.325Z,94671.48
2017-08-10T17:41:17.832Z,94670.48
2017-08-10T17:43:45.441Z,94674.09
2017-08-10T17:46:12.997Z,94672.95
2017-08-10T17:48:40.548Z,94669.16
2017-08-10T17:51:08.081Z,94674.77
2017-08-10T17:53:35.620Z,94674.30
2017-08-10T17:56:03.109Z,94675.09
2017-08-10T17:58:30.632Z,94680.28
2017-08-10T18:01:00.143Z,94679.77
2017-08-10T18:03:25.862Z,94673.11
2017-08-10T18:05:53.482Z,94678.66
2017-08-10T18:08:20.986Z,94672.58
2017-08-10T18:10:48.471Z,94674.81
2017-08-10T18:13:16.098Z,94674.98
2017-08-10T18:15:43.656Z,94673.86
2017-08-10T18:18:11.213Z,94669.55
2017-08-10T18:20:38.742Z,94673.13
2017-08-10T18:23:06.388Z,94675.33
2017-08-10T18:25:33.987Z,94677.14
2017-08-10T18:28:01.514Z,94680.92
2017-08-10T18:30:29.032Z,94676.34
2017-08-10T18:32:56.536Z,94676.80
2017-08-10T18:35:24.073Z,94667.37
2017-08-10T18:37:51.581Z,94672.22
2017-08-10T18:40:19.094Z,94676.79
2017-08-10T18:42:46.707Z,94677.52
2017-08-10T18:45:14.684Z,94683.92
2017-08-10T18:47:42.165Z,94687.14
2017-08-10T18:50:09.682Z,94684.14
2017-08-10T18:52:37.235Z,94680.30
2017-08-10T18:55:04.717Z,94683.18
2017-08-10T18:57:35.929Z,94681.91
2017-08-10T19:00:14.075Z,94676.61
2017-08-10T19:02:41.659Z,94680.37
2017-08-10T19:05:09.264Z,94676.20
2017-08-10T19:07:36.759Z,94676.25
2017-08-10T19:10:04.295Z,94678.45
2017-08-10T19:12:31.803Z,94672.10
2017-08-10T19:14:59.312Z,94673.44
2017-08-10T19:17:26.899Z,94671.35
2017-08-10T19:19:54.525Z,94673.31
2017-08-10T19:22:22.035Z,94671.40
2017-08-10T19:24:49.616Z,94679.69
2017-08-10T19:27:17.181Z,94681.03
2017-08-10T19:29:44.665Z,94688.09
2017-08-10T19:32:12.215Z,94685.06
2017-08-10T19:34:40.961Z,94679.84
2017-08-10T19:37:08.554Z,94677.00
2017-08-10T19:39:36.828Z,94671.38
2017-08-10T19:42:04.319Z,94673.91
2017-08-10T19:44:31.814Z,94676.04
2017-08-10T19:46:59.340Z,94677.39
2017-08-10T19:49:26.822Z,94688.37
2017-08-10T19:51:54.309Z,94687.22
2017-08-10T19:54:22.274Z,94688.02
2017-08-10T19:56:49.767Z,94689.40
2017-08-10T19:59:17.250Z,94688.27
2017-08-10T20:01:44.778Z,94694.05
2017-08-10T20:04:12.266Z,94697.55
2017-08-10T20:06:39.784Z,94696.98
2017-08-10T20:09:08.306Z,94693.75
2017-08-10T20:11:35.806Z,94698.00
2017-08-10T20:14:03.325Z,94697.61
2017-08-10T20:16:30.915Z,94700.13
2017-08-10T20:18:58.492Z,94699.38
2017-08-10T20:21:26.019Z,94700.34
2017-08-10T20:23:53.582Z,94698.84
2017-08-10T20:26:21.060Z,94696.91
2017-08-10T20:28:48.610Z,94707.91
2017-08-10T20:31:16.199Z,94699.98
2017-08-10T20:33:43.751Z,94699.59
2017-08-10T20:36:11.243Z,94702.30
2017-08-10T20:38:38.860Z,94701.56
2017-08-10T20:41:06.364Z,94708.89
2017-08-10T20:43:33.877Z,94710.61
2017-08-10T20:46:01.475Z,94704.24
2017-08-10T20:48:28.956Z,94705.80
2017-08-10T20:50:57.134Z,94702.72
2017-08-10T20:53:24.676Z,94703.50
2017-08-10T20:55:52.490Z,94702.58
2017-08-10T20:58:20.789Z,94695.68
2017-08-10T21:00:49.342Z,94702.05
2017-08-10T21:03:16.845Z,94695.53
2017-08-10T21:05:44.358Z,94707.28
2017-08-10T21:08:11.896Z,94708.42
2017-08-10T21:10:39.400Z,94709.59
2017-08-10T21:13:06.940Z,94708.25
2017-08-10T21:15:34.487Z,94715.17
2017-08-10T21:18:02.050Z,94712.69
2017-08-10T21:20:29.556Z,94713.45
2017-08-10T21:22:57.088Z,94711.37
2017-08-10T21:25:24.652Z,94711.00
2017-08-10T21:27:52.133Z,94709.86
2017-08-10T21:30:19.892Z,94708.30
2017-08-10T21:32:47.444Z,94708.12
2017-08-10T21:35:14.922Z,94706.02
2017-08-10T21:37:42.503Z,94708.53
2017-08-10T21:40:10.004Z,94702.96
2017-08-10T21:42:37.551Z,94705.09
2017-08-10T21:45:05.161Z,94705.63
2017-08-10T21:47:32.668Z,94697.38
2017-08-10T21:50:00.154Z,94698.13
2017-08-10T21:52:27.753Z,94698.33
2017-08-10T21:54:55.324Z,94693.52
2017-08-10T21:57:22.840Z,94690.82
2017-08-10T21:59:50.390Z,94693.33
2017-08-10T22:02:17.896Z,94693.52
2017-08-10T22:04:45.386Z,94687.74
2017-08-10T22:07:12.901Z,94685.05
2017-08-10T22:09:40.406Z,94682.34
2017-08-10T22:12:07.905Z,94676.58
2017-08-10T22:14:35.425Z,94675.81
2017-08-10T22:17:02.901Z,94673.91
2017-08-10T22:19:30.414Z,94674.67
2017-08-10T22:21:57.964Z,94668.33
2017-08-10T22:24:25.446Z,94672.73
2017-08-10T22:26:53.054Z,94667.94
2017-08-10T22:29:20.648Z,94677.94
2017-08-10T22:31:48.149Z,94677.34
2017-08-10T22:34:15.703Z,94679.84
2017-08-10T22:36:43.231Z,94676.00
2017-08-10T22:39:10.734Z,94683.88
2017-08-10T22:41:38.288Z,94681.77
2017-08-10T22:44:05.812Z,94683.11
2017-08-10T22:46:33.320Z,94686.94
2017-08-10T22:49:00.880Z,94687.13
2017-08-10T22:51:28.975Z,94683.47
2017-08-10T22:53:56.502Z,94683.86
2017-08-10T22:56:24.754Z,94688.30
2017-08-10T22:58:53.209Z,94684.67
2017-08-10T23:01:20.692Z,94681.39
2017-08-10T23:03:48.197Z,94676.98
2017-08-10T23:06:16.592Z,94672.95
2017-08-10T23:08:44.086Z,94678.33
2017-08-10T23:11:11.602Z,94677.56
2017-08-10T23:13:39.140Z,94678.52
2017-08-10T23:16:06.636Z,94679.67
2017-08-10T23:18:34.191Z,94680.44
2017-08-10T23:21:01.735Z,94672.94
2017-08-10T23:23:29.284Z,94674.48
2017-08-10T23:25:56.835Z,94676.80
2017-08-10T23:28:24.427Z,94681.02
2017-08-10T23:30:51.919Z,94678.75
2017-08-10T23:33:19.536Z,94671.03
2017-08-10T23:35:47.130Z,94675.63
2017-08-10T23:38:14.715Z,94675.42
2017-08-10T23:40:43.357Z,94679.05
2017-08-10T23:43:10.894Z,94676.11
2017-08-10T23:45:38.407Z,94676.30
2017-08-10T23:48:06.015Z,94678.78
2017-08-10T23:50:33.570Z,94681.46
2017-08-10T23:53:01.243Z,94677.20
2017-08-10T23:55:29.058Z,94671.03
2017-08-10T23:57:56.644Z,94667.74
